Aviation Digital Data Service (ADDS)

Output produced by METARs form (1058 UTC 24 April 2014)
found at http://aviationweather.gov/adds/metars/
 
KCDW 241053Z 33010G21KT 10SM CLR 05/M08 A2992 RMK AO2 SLP137 T00501083
KMMU 241035Z AUTO 30010G15KT 280V360 10SM CLR 06/M09 A2992 RMK AO2
KFWN 241053Z AUTO VRB04KT 10SM CLR 05/M08 A2993 RMK AO2 SLP135 T00501083 $
KTEB 241051Z 32008KT 10SM CLR 07/M08 A2989 RMK AO2 SLP122 T00671078
KTEB 240830Z 2409/2506 31011G18KT P6SM SKC 
     FM241400 32021G32KT P6SM SKC 
     FM242200 33016G23KT P6SM SKC 
     FM250000 33012KT P6SM SKC 
     FM250300 33005KT P6SM SKC
       
KEWR 241051Z 31011G18KT 10SM CLR 06/M08 A2991 RMK AO2 SLP128 T00611078 $
KEWR 240830Z 2409/2512 31013G19KT P6SM SKC 
     FM241400 32024G34KT P6SM SKC 
     FM242200 32017G27KT P6SM SKC 
     FM250200 34012KT P6SM SKC
       
KABE 241051Z 32011KT 10SM CLR 04/M09 A2998 RMK AO2 SLP154 T00441089
KABE 240531Z 2406/2506 30010KT P6SM SKC 
     FM241300 31014G26KT P6SM SKC 
     FM250000 35005KT P6SM SKC
       
KAVP 241054Z AUTO VRB06KT 10SM CLR 02/M08 A2998 RMK AO2 SLP158 T00171078 TSNO
KAVP 240853Z 2409/2506 30012G22KT P6SM SKC 
     FM241400 32018G28KT P6SM SCT250 
     FM242300 35008KT P6SM SCT250
       
KSWF 241045Z 25006KT 15SM SKC 03/M07 A2989
KSWF 240830Z 2409/2512 30012KT P6SM SKC 
     FM241400 32020G33KT P6SM SKC 
     FM242100 33018G28KT P6SM SKC 
     FM250100 34011G19KT P6SM SKC 
     FM250300 28006KT P6SM SKC AMD NOT SKED
       
KMSV 241055Z 32015G24KT 10SM CLR 01/M09 A2989 RMK AO1 70007
KPOU 241053Z 29012G18KT 10SM CLR 06/M10 A2987 RMK AO2 SLP112 T00561100
KPOU 240520Z 2406/2506 30010G16KT P6SM SKC 
     FM241300 32015G27KT P6SM SKC 
     FM250000 32004KT P6SM SCT250